Crescent City, California
Current Conditions -  °F | °C
As of 7:56 AM on Friday 24 Oct 2014 (Local Time) from KCEC Reporting Station
Light Rain Light Rain  
Wind Chill: 55°   Ceiling: 5000
Heat Index: 55°   Visibility: 7mi
Dew Point: 54°   Wind: 8mph
Humidity: 96%   Direction: 80°E
Pressure: 29.85"   Gusts: NA
Location:  41.74°N, 124.16°W
Report Text: KCEC 241456Z AUTO 08007KT 7SM -RA OVC050 13/12 A2985 RMK AO2 RAB05 SLP109 P0001 60006 T01280122 58032
Loading
Personal Weather Stations






























Interactive Weather Map New forecast layout! Learn more

10-Day Weather Forecast

Advertisements
Track Severe Weather on mobile